Time;durP1;ratioP1;P1;durP2;ratioP2;P2;SDS_P1;SDS_P2;PMS_P1;PMS_P2;Temp;Humidity;BMP_temperature;BMP_pressure;BME280_temperature;BME280_humidity;BME280_pressure;Samples;Min_cycle;Max_cycle;Signal;HPM_P1;HPM_P2
2022/10/14 00:02:04;;;;;;;33.80;7.03;;;9.10;99.90;;;;;;5043042;28;20712;-70
2022/10/14 00:04:30;;;;;;;47.63;8.20;;;9.10;99.90;;;;;;5061230;28;20076;-70
2022/10/14 00:06:56;;;;;;;9.53;4.30;;;9.10;99.90;;;;;;5059922;28;20519;-70
2022/10/14 00:09:22;;;;;;;33.13;6.00;;;9.00;99.90;;;;;;5066831;28;20044;-70
2022/10/14 00:11:48;;;;;;;12.03;4.30;;;9.10;99.90;;;;;;5020639;28;20052;-70
2022/10/14 00:14:17;;;;;;;21.23;4.73;;;9.00;99.90;;;;;;5061036;28;20853;-70
2022/10/14 00:16:46;;;;;;;32.60;5.70;;;9.00;99.90;;;;;;5060626;28;20439;-71
2022/10/14 00:19:12;;;;;;;14.67;5.50;;;9.10;99.90;;;;;;5055006;28;20285;-70
2022/10/14 00:21:40;;;;;;;10.40;4.43;;;9.10;99.90;;;;;;5066553;28;20282;-70
2022/10/14 00:24:06;;;;;;;30.03;6.60;;;9.10;99.90;;;;;;5066892;28;20517;-70
2022/10/14 00:26:34;;;;;;;13.70;4.60;;;9.10;99.90;;;;;;5053743;28;20693;-70
2022/10/14 00:29:01;;;;;;;8.10;4.37;;;9.20;99.90;;;;;;5050673;28;20335;-70
2022/10/14 00:31:28;;;;;;;10.17;5.13;;;9.20;99.90;;;;;;5059624;28;20866;-70
2022/10/14 00:33:54;;;;;;;10.57;5.23;;;9.20;99.90;;;;;;5060015;28;20769;-70
2022/10/14 00:36:22;;;;;;;17.53;5.20;;;9.20;99.90;;;;;;5061089;28;20310;-70
2022/10/14 00:38:48;;;;;;;17.43;5.73;;;9.30;99.90;;;;;;5067284;28;20757;-71
2022/10/14 00:41:25;;;;;;;14.67;5.83;;;9.30;99.90;;;;;;5050089;28;20310;-70
2022/10/14 00:43:59;;;;;;;16.17;5.30;;;9.30;99.90;;;;;;5055086;28;20309;-70
2022/10/14 00:46:27;;;;;;;9.67;5.33;;;9.30;99.90;;;;;;5060727;28;20683;-71
2022/10/14 00:48:54;;;;;;;9.47;5.10;;;9.30;99.90;;;;;;5030680;28;20557;-70
2022/10/14 00:51:20;;;;;;;7.83;5.40;;;9.30;99.90;;;;;;5047746;28;20371;-71
2022/10/14 00:53:46;;;;;;;22.70;6.00;;;9.30;99.90;;;;;;5044447;28;20622;-70
2022/10/14 00:56:15;;;;;;;41.87;7.57;;;9.30;99.90;;;;;;5045863;28;20290;-71
2022/10/14 00:58:42;;;;;;;43.27;7.03;;;9.30;99.90;;;;;;5058701;28;20317;-70
2022/10/14 01:01:08;;;;;;;44.40;8.60;;;9.30;99.90;;;;;;5052126;28;20328;-70
2022/10/14 01:03:33;;;;;;;27.97;6.80;;;9.30;99.90;;;;;;5053303;28;20289;-70
2022/10/14 01:06:11;;;;;;;47.80;6.87;;;9.30;99.90;;;;;;5051473;28;20036;-70
2022/10/14 01:08:42;;;;;;;47.43;7.87;;;9.30;99.90;;;;;;5065248;28;20725;-70
2022/10/14 01:11:40;;;;;;;157.23;13.53;;;9.30;99.90;;;;;;5058652;28;20278;-70
2022/10/14 01:14:25;;;;;;;161.50;13.75;;;9.30;99.90;;;;;;5063914;28;20359;-70
2022/10/14 01:16:56;;;;;;;67.57;8.95;;;9.30;99.90;;;;;;5065517;28;20564;-70
2022/10/14 01:19:41;;;;;;;61.77;10.13;;;9.40;99.90;;;;;;5056147;28;20593;-70
2022/10/14 01:22:25;;;;;;;170.50;16.17;;;9.40;99.90;;;;;;5065393;28;20328;-70
2022/10/14 01:25:55;;;;;;;48.57;7.63;;;9.30;99.90;;;;;;5064125;28;20041;-70
2022/10/14 01:28:27;;;;;;;74.83;10.20;;;9.30;99.90;;;;;;4960814;28;20784;-70
2022/10/14 01:31:08;;;;;;;44.87;8.77;;;9.30;99.90;;;;;;5048240;28;20926;-70
2022/10/14 01:33:37;;;;;;;61.07;10.40;;;9.30;99.90;;;;;;5055786;28;20645;-70
2022/10/14 01:36:17;;;;;;;42.43;8.30;;;9.30;99.90;;;;;;5066003;28;20310;-70
2022/10/14 01:38:51;;;;;;;95.87;12.63;;;9.20;99.90;;;;;;5066434;28;20270;-70
2022/10/14 01:41:20;;;;;;;55.17;8.53;;;9.20;99.90;;;;;;5066187;28;20674;-70
2022/10/14 01:43:49;;;;;;;70.03;11.03;;;9.20;99.90;;;;;;5035082;28;20307;-71
2022/10/14 01:46:17;;;;;;;32.23;7.33;;;9.10;99.90;;;;;;5061931;28;20647;-70
2022/10/14 01:48:50;;;;;;;55.87;8.50;;;9.10;99.90;;;;;;5064822;28;20306;-70
2022/10/14 01:51:26;;;;;;;89.53;11.63;;;9.00;99.90;;;;;;5065949;28;20811;-70
2022/10/14 01:54:01;;;;;;;73.73;9.13;;;9.00;99.90;;;;;;5038398;28;20328;-70
2022/10/14 01:56:30;;;;;;;90.20;11.90;;;9.00;99.90;;;;;;5064053;28;20929;-70
2022/10/14 01:58:58;;;;;;;50.10;8.23;;;9.00;99.90;;;;;;5057333;28;20279;-70
2022/10/14 02:01:24;;;;;;;61.25;9.98;;;8.90;99.90;;;;;;5059037;28;20045;-70
2022/10/14 02:03:50;;;;;;;24.13;6.67;;;8.90;99.90;;;;;;5067442;28;20050;-70
2022/10/14 02:06:28;;;;;;;50.67;8.83;;;8.90;99.90;;;;;;5057778;28;20331;-69
2022/10/14 02:09:03;;;;;;;80.60;11.63;;;8.90;99.90;;;;;;5068362;28;20036;-70
2022/10/14 02:11:37;;;;;;;32.00;7.80;;;8.90;99.90;;;;;;5058920;28;20274;-70
2022/10/14 02:14:32;;;;;;;42.27;8.40;;;8.90;99.90;;;;;;5067599;28;20392;-70
2022/10/14 02:17:15;;;;;;;85.75;14.02;;;8.90;99.90;;;;;;5066840;28;20293;-70
2022/10/14 02:19:43;;;;;;;50.03;10.70;;;9.00;99.90;;;;;;5061441;28;20492;-70
2022/10/14 02:22:11;;;;;;;57.93;12.57;;;8.90;99.90;;;;;;5068544;28;20314;-70
2022/10/14 02:24:41;;;;;;;44.30;9.93;;;9.00;99.90;;;;;;5069105;28;20314;-70
2022/10/14 02:27:13;;;;;;;71.00;13.88;;;9.00;99.90;;;;;;5055838;28;20334;-70
2022/10/14 02:29:42;;;;;;;147.03;20.10;;;9.00;99.90;;;;;;5052639;28;20116;-70
2022/10/14 02:32:09;;;;;;;44.25;12.32;;;9.00;99.90;;;;;;5059576;28;20289;-70
2022/10/14 02:34:36;;;;;;;75.40;14.80;;;9.00;99.90;;;;;;5064610;28;20052;-70
2022/10/14 02:37:03;;;;;;;39.60;10.93;;;9.00;99.90;;;;;;5069727;28;20499;-70
2022/10/14 02:39:37;;;;;;;68.25;13.05;;;9.00;99.90;;;;;;5047754;28;20689;-70
2022/10/14 02:42:04;;;;;;;33.47;11.47;;;9.00;99.90;;;;;;5067849;28;20094;-70
2022/10/14 02:44:30;;;;;;;60.37;14.70;;;9.00;99.90;;;;;;5048916;28;20330;-70
2022/10/14 02:46:55;;;;;;;27.07;11.70;;;9.00;99.90;;;;;;5069062;28;20278;-70
2022/10/14 02:49:22;;;;;;;44.77;12.83;;;9.10;99.90;;;;;;5067913;28;20039;-70
2022/10/14 02:51:47;;;;;;;119.83;17.87;;;9.10;99.90;;;;;;5068360;28;20044;-69
2022/10/14 02:54:13;;;;;;;56.80;13.23;;;9.10;99.90;;;;;;5067881;28;20294;-70
2022/10/14 02:56:39;;;;;;;53.70;13.40;;;9.10;99.90;;;;;;5026251;28;20049;-70
2022/10/14 02:59:06;;;;;;;89.70;16.27;;;9.20;99.90;;;;;;5061590;28;20054;-70
2022/10/14 03:01:31;;;;;;;49.20;13.47;;;9.20;99.90;;;;;;5032531;28;20400;-70
2022/10/14 03:03:57;;;;;;;92.20;16.20;;;9.30;99.90;;;;;;5067084;28;20314;-70
2022/10/14 03:06:23;;;;;;;54.53;13.07;;;9.30;99.90;;;;;;5056674;28;20040;-70
2022/10/14 03:08:49;;;;;;;71.83;15.73;;;9.40;99.90;;;;;;5068236;28;20044;-70
2022/10/14 03:11:15;;;;;;;105.77;17.13;;;9.40;99.90;;;;;;5068348;28;20040;-70
2022/10/14 03:13:41;;;;;;;211.40;21.97;;;9.50;99.90;;;;;;5067429;28;20828;-70
2022/10/14 03:16:07;;;;;;;219.03;23.67;;;9.60;99.90;;;;;;5068751;28;20036;-70
2022/10/14 03:18:33;;;;;;;154.07;21.17;;;9.60;99.90;;;;;;5068411;28;20553;-70
2022/10/14 03:20:59;;;;;;;95.93;19.80;;;9.70;99.90;;;;;;5053473;28;20287;-70
2022/10/14 03:23:24;;;;;;;222.03;25.73;;;9.80;99.90;;;;;;5062927;28;20044;-70
2022/10/14 03:25:50;;;;;;;244.30;27.07;;;9.90;99.90;;;;;;5060532;28;20056;-70
2022/10/14 03:28:16;;;;;;;137.80;23.77;;;10.00;99.90;;;;;;5047393;28;20040;-70
2022/10/14 03:30:42;;;;;;;334.93;31.17;;;10.00;99.90;;;;;;5051374;28;20428;-70
2022/10/14 03:33:07;;;;;;;162.27;22.23;;;10.10;99.90;;;;;;5034601;28;20118;-70
2022/10/14 03:35:33;;;;;;;103.80;20.83;;;10.20;99.90;;;;;;5068064;28;20040;-70
2022/10/14 03:38:01;;;;;;;70.00;17.83;;;10.20;99.90;;;;;;5051151;28;20040;-70
2022/10/14 03:40:27;;;;;;;87.37;16.83;;;10.20;99.90;;;;;;5026940;28;20258;-70
2022/10/14 03:42:56;;;;;;;50.63;15.43;;;10.20;99.90;;;;;;5020165;28;20670;-70
2022/10/14 03:45:21;;;;;;;74.20;16.03;;;10.20;99.90;;;;;;5057532;28;20314;-70
2022/10/14 03:47:47;;;;;;;43.23;13.40;;;10.30;99.90;;;;;;5049878;28;20702;-71
2022/10/14 03:50:12;;;;;;;68.57;14.80;;;10.30;99.90;;;;;;5048118;28;20181;-70
2022/10/14 03:52:39;;;;;;;54.20;13.27;;;10.20;99.90;;;;;;5049523;28;20033;-70
2022/10/14 03:55:05;;;;;;;131.60;16.67;;;10.20;99.90;;;;;;5047700;28;20054;-70
2022/10/14 03:57:31;;;;;;;63.43;13.10;;;10.20;99.90;;;;;;5049922;28;20279;-70
2022/10/14 03:59:56;;;;;;;33.33;11.00;;;10.20;99.90;;;;;;5066929;28;20286;-70
2022/10/14 04:02:22;;;;;;;46.83;10.33;;;10.20;99.90;;;;;;5062432;28;20044;-70
2022/10/14 04:04:48;;;;;;;122.10;13.73;;;10.20;99.90;;;;;;5049082;28;20055;-70
2022/10/14 04:07:13;;;;;;;66.03;9.63;;;10.10;99.90;;;;;;5061667;28;20508;-70
2022/10/14 04:09:39;;;;;;;102.37;11.67;;;10.10;99.90;;;;;;5066223;28;20040;-70
2022/10/14 04:12:05;;;;;;;75.17;8.50;;;10.00;99.90;;;;;;5048557;28;20089;-70
2022/10/14 04:14:30;;;;;;;71.80;9.10;;;10.00;99.90;;;;;;5063228;28;20045;-70
2022/10/14 04:16:56;;;;;;;29.63;7.03;;;9.90;99.90;;;;;;5047821;28;20052;-70
2022/10/14 04:19:22;;;;;;;70.53;9.37;;;9.90;99.90;;;;;;5047526;28;20048;-70
2022/10/14 04:21:48;;;;;;;66.57;9.23;;;9.80;99.90;;;;;;5031260;28;20099;-70
2022/10/14 04:24:14;;;;;;;136.40;10.80;;;9.80;99.90;;;;;;5047557;28;20044;-70
2022/10/14 04:26:40;;;;;;;83.33;8.93;;;9.70;99.90;;;;;;5052878;28;20128;-70
2022/10/14 04:29:05;;;;;;;67.83;8.53;;;9.70;99.90;;;;;;5067000;28;20377;-70
2022/10/14 04:31:31;;;;;;;141.27;12.50;;;9.70;99.90;;;;;;5052785;28;20036;-70
2022/10/14 04:33:57;;;;;;;59.30;8.43;;;9.60;99.90;;;;;;5044530;28;20512;-70
2022/10/14 04:36:23;;;;;;;97.33;10.30;;;9.60;99.90;;;;;;5047173;28;20264;-70
2022/10/14 04:38:48;;;;;;;99.17;10.63;;;9.60;99.90;;;;;;5063431;28;20047;-70
2022/10/14 04:41:14;;;;;;;111.63;11.60;;;9.50;99.90;;;;;;5046296;28;20040;-70
2022/10/14 04:43:39;;;;;;;152.17;13.97;;;9.50;99.90;;;;;;5037232;28;20040;-70
2022/10/14 04:46:05;;;;;;;71.00;9.50;;;9.50;99.90;;;;;;5061466;28;20047;-70
2022/10/14 04:48:31;;;;;;;75.53;11.13;;;9.50;99.90;;;;;;5067530;28;20108;-70
2022/10/14 04:50:57;;;;;;;59.87;10.43;;;9.50;99.90;;;;;;5047018;28;20736;-70
2022/10/14 04:53:22;;;;;;;163.27;16.33;;;9.50;99.90;;;;;;5054131;28;20039;-70
2022/10/14 04:55:49;;;;;;;73.17;11.63;;;9.50;99.90;;;;;;5064804;28;20455;-70
2022/10/14 04:58:15;;;;;;;77.57;12.30;;;9.50;99.90;;;;;;5047614;28;20458;-70
2022/10/14 05:00:41;;;;;;;40.50;10.00;;;9.50;99.90;;;;;;5057710;28;20775;-70
2022/10/14 05:03:07;;;;;;;46.37;8.87;;;9.40;99.90;;;;;;5066895;28;20401;-70
2022/10/14 05:05:33;;;;;;;67.50;10.70;;;9.40;99.90;;;;;;5062055;28;20525;-70
2022/10/14 05:07:59;;;;;;;58.73;9.70;;;9.40;99.90;;;;;;5057016;28;20071;-70
2022/10/14 05:10:24;;;;;;;67.97;10.23;;;9.40;99.90;;;;;;5061105;28;20633;-70
2022/10/14 05:12:50;;;;;;;47.63;11.27;;;9.40;99.90;;;;;;5056389;28;20036;-70
2022/10/14 05:15:16;;;;;;;116.50;13.43;;;9.40;99.90;;;;;;5036247;28;20696;-70
2022/10/14 05:17:43;;;;;;;57.63;11.63;;;9.40;99.90;;;;;;5063388;28;20289;-70
2022/10/14 05:20:10;;;;;;;77.10;11.90;;;9.40;99.90;;;;;;5016775;28;20303;-71
2022/10/14 05:22:37;;;;;;;93.30;12.60;;;9.40;99.90;;;;;;5037048;28;20298;-70
2022/10/14 05:25:02;;;;;;;69.80;12.30;;;9.40;99.90;;;;;;5058870;28;20413;-70
2022/10/14 05:27:28;;;;;;;145.33;15.80;;;9.40;99.90;;;;;;5040149;28;20381;-70
2022/10/14 05:29:54;;;;;;;201.23;19.63;;;9.50;99.90;;;;;;5064783;28;20051;-70
2022/10/14 05:32:20;;;;;;;111.50;16.13;;;9.50;99.90;;;;;;5050840;28;20036;-70
2022/10/14 05:34:45;;;;;;;57.10;13.70;;;9.50;99.90;;;;;;5048812;28;20598;-70
2022/10/14 05:37:11;;;;;;;72.37;14.43;;;9.40;99.90;;;;;;5043170;28;20440;-70
2022/10/14 05:39:37;;;;;;;116.87;16.97;;;9.40;99.90;;;;;;5067733;28;20043;-70
2022/10/14 05:42:03;;;;;;;119.93;17.53;;;9.40;99.90;;;;;;5069763;28;20047;-70
2022/10/14 05:44:28;;;;;;;62.77;15.70;;;9.40;99.90;;;;;;5042452;28;20131;-70
2022/10/14 05:46:54;;;;;;;84.73;18.67;;;9.40;99.90;;;;;;5056514;28;20041;-70
2022/10/14 05:49:20;;;;;;;68.33;18.43;;;9.40;99.90;;;;;;5060734;28;20050;-70
2022/10/14 05:51:46;;;;;;;84.37;20.60;;;9.40;99.90;;;;;;5057604;28;20028;-70
2022/10/14 05:54:11;;;;;;;56.90;18.53;;;9.40;99.90;;;;;;5056146;28;20044;-70
2022/10/14 05:56:37;;;;;;;50.03;19.60;;;9.40;99.90;;;;;;5026430;28;20040;-70
2022/10/14 05:59:03;;;;;;;77.90;20.00;;;9.30;99.90;;;;;;5058034;28;20123;-70
2022/10/14 06:01:30;;;;;;;51.87;19.33;;;9.30;99.90;;;;;;5065721;28;20127;-70
2022/10/14 06:03:56;;;;;;;44.53;18.53;;;9.40;99.90;;;;;;5053565;28;20048;-70
2022/10/14 06:06:21;;;;;;;54.53;21.30;;;9.40;99.90;;;;;;5069896;28;20289;-70
2022/10/14 06:08:47;;;;;;;61.17;21.43;;;9.40;99.90;;;;;;5068430;28;20040;-70
2022/10/14 06:11:13;;;;;;;38.10;17.53;;;9.40;99.90;;;;;;5048008;28;20037;-70
2022/10/14 06:13:39;;;;;;;41.20;17.73;;;9.50;99.90;;;;;;5047534;28;20047;-70
2022/10/14 06:16:06;;;;;;;48.23;18.77;;;9.50;99.90;;;;;;5069386;28;20487;-70
2022/10/14 06:18:34;;;;;;;41.33;18.27;;;9.50;99.90;;;;;;5069535;28;20036;-70
2022/10/14 06:21:00;;;;;;;42.80;19.20;;;9.50;99.90;;;;;;5051531;28;20285;-70
2022/10/14 06:23:26;;;;;;;35.17;17.73;;;9.60;99.90;;;;;;5064201;28;20279;-70
2022/10/14 06:25:51;;;;;;;37.13;19.93;;;9.60;99.90;;;;;;5061493;28;20056;-70
2022/10/14 06:28:17;;;;;;;50.50;17.63;;;9.60;99.90;;;;;;5052410;28;20286;-70
2022/10/14 06:30:52;;;;;;;38.73;17.10;;;9.60;99.90;;;;;;5062573;28;20400;-70
2022/10/14 06:33:18;;;;;;;46.92;16.73;;;9.60;99.90;;;;;;5043289;28;20040;-70
2022/10/14 06:35:43;;;;;;;31.07;14.40;;;9.70;99.90;;;;;;5044651;28;20044;-70
2022/10/14 06:38:09;;;;;;;53.87;16.00;;;9.70;99.90;;;;;;5050802;28;20294;-70
2022/10/14 06:40:35;;;;;;;33.33;13.63;;;9.70;99.90;;;;;;5067836;28;20079;-70
2022/10/14 06:43:01;;;;;;;32.17;13.17;;;9.70;99.90;;;;;;5069328;28;20497;-70
2022/10/14 06:45:27;;;;;;;61.23;16.17;;;9.70;99.90;;;;;;5048962;28;20313;-70
2022/10/14 06:47:53;;;;;;;46.43;15.43;;;9.70;99.90;;;;;;5045961;28;20036;-70
2022/10/14 06:50:18;;;;;;;41.87;14.90;;;9.70;99.90;;;;;;5068984;28;20048;-70
2022/10/14 06:52:45;;;;;;;39.67;14.10;;;9.80;99.90;;;;;;5051678;28;20086;-70
2022/10/14 06:55:11;;;;;;;36.67;13.40;;;9.80;99.90;;;;;;5069060;28;20042;-70
2022/10/14 06:57:37;;;;;;;44.70;14.10;;;9.80;99.90;;;;;;5055548;28;20287;-71
2022/10/14 07:00:04;;;;;;;31.70;14.37;;;9.80;99.90;;;;;;5067918;28;20297;-70
2022/10/14 07:02:31;;;;;;;45.40;13.73;;;9.80;99.90;;;;;;5067609;28;20072;-71
2022/10/14 07:04:58;;;;;;;47.57;14.23;;;9.90;99.90;;;;;;5031980;28;20825;-71
2022/10/14 07:07:29;;;;;;;35.13;14.80;;;9.90;99.90;;;;;;5084427;28;20324;-71
2022/10/14 07:09:56;;;;;;;47.20;15.37;;;9.90;99.90;;;;;;5050214;28;20286;-72
2022/10/14 07:12:28;;;;;;;41.63;14.73;;;9.90;99.90;;;;;;5068420;28;20279;-72
2022/10/14 07:14:57;;;;;;;31.27;12.37;;;9.90;99.90;;;;;;5059458;28;20283;-72
2022/10/14 07:17:26;;;;;;;35.57;13.83;;;9.90;99.90;;;;;;5050669;28;20285;-72
2022/10/14 07:19:53;;;;;;;31.43;14.37;;;9.90;99.90;;;;;;5063562;28;20372;-72
2022/10/14 07:22:18;;;;;;;33.57;12.80;;;9.90;99.90;;;;;;5069714;28;20044;-71
2022/10/14 07:24:47;;;;;;;28.60;13.07;;;9.90;99.90;;;;;;5087133;28;20389;-71
2022/10/14 07:27:14;;;;;;;30.13;12.70;;;9.90;99.90;;;;;;5027378;28;20430;-71
2022/10/14 07:29:41;;;;;;;22.30;12.13;;;10.00;99.90;;;;;;5049216;28;20134;-72
2022/10/14 07:32:07;;;;;;;34.93;12.80;;;10.00;99.90;;;;;;5045584;28;20490;-72
2022/10/14 07:34:33;;;;;;;49.50;14.53;;;10.00;99.90;;;;;;5050720;28;20365;-72
2022/10/14 07:36:59;;;;;;;32.17;14.03;;;10.00;99.90;;;;;;5033464;28;20047;-71
2022/10/14 07:39:26;;;;;;;30.80;13.47;;;10.00;99.90;;;;;;5064278;28;20288;-71
2022/10/14 07:41:52;;;;;;;25.83;12.90;;;10.10;99.90;;;;;;5068360;28;20397;-71
2022/10/14 07:44:19;;;;;;;31.37;13.83;;;10.10;99.90;;;;;;5069209;28;20852;-71
2022/10/14 07:46:46;;;;;;;32.53;14.70;;;10.10;99.90;;;;;;5067606;28;20368;-71
2022/10/14 07:49:20;;;;;;;33.10;14.47;;;10.20;99.90;;;;;;5068657;28;20401;-71
2022/10/14 07:51:46;;;;;;;37.17;15.77;;;10.20;99.90;;;;;;5068546;28;20286;-71
2022/10/14 07:54:16;;;;;;;42.90;18.10;;;10.30;99.90;;;;;;5068806;28;20305;-71
2022/10/14 07:56:44;;;;;;;46.43;19.50;;;10.30;99.90;;;;;;5067899;28;20278;-71
2022/10/14 07:59:11;;;;;;;54.77;22.70;;;10.30;99.90;;;;;;5052104;28;20294;-72
2022/10/14 08:01:37;;;;;;;45.77;19.50;;;10.30;99.90;;;;;;5067900;28;20286;-72
2022/10/14 08:04:03;;;;;;;33.63;17.17;;;10.30;99.90;;;;;;5050868;28;20309;-72
2022/10/14 08:06:29;;;;;;;41.10;17.17;;;10.40;99.90;;;;;;5026085;28;20514;-72
2022/10/14 08:08:55;;;;;;;32.47;16.17;;;10.40;99.90;;;;;;5055941;28;20274;-71
2022/10/14 08:11:27;;;;;;;28.17;14.70;;;10.50;99.90;;;;;;5068664;28;20036;-72
2022/10/14 08:13:53;;;;;;;29.10;15.20;;;10.60;99.90;;;;;;5052279;28;20075;-73
2022/10/14 08:16:24;;;;;;;23.77;13.80;;;10.70;99.90;;;;;;5059707;28;20319;-71
2022/10/14 08:18:51;;;;;;;27.53;15.37;;;10.70;99.90;;;;;;5068418;28;20288;-71
2022/10/14 08:21:19;;;;;;;27.73;15.17;;;10.80;99.90;;;;;;5051293;28;20300;-71
2022/10/14 08:23:46;;;;;;;28.73;15.00;;;10.90;99.90;;;;;;5052210;28;20339;-72
2022/10/14 08:26:15;;;;;;;29.27;15.80;;;10.90;99.90;;;;;;5057658;28;20306;-71
2022/10/14 08:28:48;;;;;;;26.50;15.10;;;10.90;99.90;;;;;;5064364;28;20375;-72
2022/10/14 08:31:14;;;;;;;28.13;14.87;;;11.00;99.90;;;;;;5056504;28;20566;-72
2022/10/14 08:33:40;;;;;;;26.93;15.27;;;11.00;99.90;;;;;;5068372;28;20289;-72
2022/10/14 08:36:06;;;;;;;28.23;15.57;;;11.00;99.90;;;;;;5084056;28;20808;-71
2022/10/14 08:38:32;;;;;;;27.77;14.83;;;11.00;99.90;;;;;;5048854;28;20125;-71
2022/10/14 08:41:07;;;;;;;26.43;15.63;;;11.10;99.90;;;;;;5042588;28;20859;-72
2022/10/14 08:43:37;;;;;;;25.52;14.52;;;11.10;99.90;;;;;;5055574;28;20165;-72
2022/10/14 08:46:44;;;;;;;29.53;16.13;;;11.10;99.90;;;;;;5066422;28;20049;-71
2022/10/14 08:49:47;;;;;;;26.53;14.70;;;11.10;99.90;;;;;;5065954;28;20290;-72
2022/10/14 08:52:29;;;;;;;27.90;14.93;;;11.20;99.90;;;;;;5031966;28;20366;-71
2022/10/14 08:55:02;;;;;;;27.90;16.47;;;11.30;99.90;;;;;;5036640;28;20282;-71
2022/10/14 08:57:34;;;;;;;28.10;14.13;;;11.30;99.90;;;;;;5060218;28;20291;-72
2022/10/14 09:00:00;;;;;;;33.40;16.70;;;11.40;99.90;;;;;;5057717;28;20293;-72
2022/10/14 09:02:48;;;;;;;34.63;17.00;;;11.40;99.90;;;;;;5065655;28;20282;-71
2022/10/14 09:05:20;;;;;;;30.30;15.43;;;11.40;99.90;;;;;;5057365;28;20606;-71
2022/10/14 09:07:49;;;;;;;31.30;15.90;;;11.50;99.90;;;;;;5072031;28;20280;-71
2022/10/14 09:10:31;;;;;;;30.53;16.03;;;11.60;99.90;;;;;;5071083;28;20286;-72
2022/10/14 09:13:09;;;;;;;32.07;16.37;;;11.60;99.90;;;;;;5070517;28;20742;-71
2022/10/14 09:15:42;;;;;;;26.10;15.20;;;11.70;99.90;;;;;;5057349;28;20301;-71
2022/10/14 09:18:38;;;;;;;31.40;16.17;;;11.70;99.90;;;;;;5057487;28;20322;-71
2022/10/14 09:21:21;;;;;;;;;;;11.80;99.90;;;;;;5060174;28;20273;-71
2022/10/14 09:23:48;;;;;;;31.77;15.97;;;11.80;99.90;;;;;;5046984;28;19970;-71
2022/10/14 09:26:18;;;;;;;31.30;16.97;;;11.70;99.90;;;;;;5061928;28;20439;-71
2022/10/14 09:28:47;;;;;;;30.70;16.80;;;11.70;99.90;;;;;;5045231;28;20279;-71
2022/10/14 09:31:13;;;;;;;34.17;16.37;;;11.70;99.90;;;;;;5050438;28;20290;-71
2022/10/14 09:33:41;;;;;;;37.57;16.97;;;11.70;99.90;;;;;;5056697;28;20298;-71
2022/10/14 09:36:26;;;;;;;33.40;16.37;;;11.70;99.90;;;;;;5067163;28;20286;-71
2022/10/14 09:38:54;;;;;;;;;;;11.80;99.90;;;;;;5068570;28;20306;-71
2022/10/14 09:41:25;;;;;;;29.10;14.80;;;11.90;99.90;;;;;;5065077;28;19920;-71
2022/10/14 09:44:18;;;;;;;31.47;15.37;;;12.00;99.90;;;;;;5070329;28;20286;-71
2022/10/14 09:47:01;;;;;;;28.97;14.10;;;12.10;99.90;;;;;;5070163;28;20318;-71
2022/10/14 09:49:38;;;;;;;31.40;14.20;;;12.20;99.90;;;;;;5047060;28;20278;-71
2022/10/14 09:52:04;;;;;;;25.20;12.97;;;12.30;99.90;;;;;;5045944;28;20274;-71
2022/10/14 09:54:31;;;;;;;23.83;11.53;;;12.30;99.90;;;;;;5056411;28;20688;-71
2022/10/14 09:57:07;;;;;;;21.33;10.73;;;12.40;99.90;;;;;;5060894;28;20281;-71
2022/10/14 09:59:59;;;;;;;17.33;9.83;;;12.40;99.90;;;;;;5067357;28;20298;-71
2022/10/14 10:02:40;;;;;;;17.77;9.83;;;12.50;99.90;;;;;;5069177;28;20287;-72
2022/10/14 10:05:30;;;;;;;20.57;10.63;;;12.60;99.90;;;;;;5070764;28;20306;-72
2022/10/14 10:08:09;;;;;;;18.87;10.20;;;12.70;99.90;;;;;;5063141;28;20279;-71
2022/10/14 10:10:35;;;;;;;17.80;9.33;;;12.70;99.90;;;;;;5049745;28;20302;-71
2022/10/14 10:13:02;;;;;;;15.97;9.07;;;12.80;99.90;;;;;;5026513;28;20781;-71
2022/10/14 10:15:28;;;;;;;16.87;10.50;;;12.80;99.90;;;;;;5049513;28;20294;-71
2022/10/14 10:17:54;;;;;;;17.27;9.33;;;12.70;99.90;;;;;;5059827;28;20761;-71
2022/10/14 10:20:32;;;;;;;16.20;8.53;;;12.70;99.90;;;;;;5067801;28;20048;-71
2022/10/14 10:23:23;;;;;;;16.50;9.13;;;12.80;99.90;;;;;;5069166;28;20052;-71
2022/10/14 10:25:50;;;;;;;16.10;9.40;;;12.80;99.90;;;;;;5061145;28;20306;-72
2022/10/14 10:28:44;;;;;;;16.30;8.60;;;12.80;99.90;;;;;;5053478;28;20298;-71
2022/10/14 10:31:40;;;;;;;15.43;9.07;;;12.90;99.90;;;;;;5059029;28;20353;-71
2022/10/14 10:34:37;;;;;;;13.00;8.23;;;12.90;99.90;;;;;;5034929;28;20389;-72
2022/10/14 10:37:25;;;;;;;13.87;7.80;;;13.00;99.90;;;;;;5067700;28;20299;-72
2022/10/14 10:40:31;;;;;;;12.17;7.17;;;13.10;99.90;;;;;;5066017;28;20347;-72
2022/10/14 10:43:19;;;;;;;12.75;8.13;;;13.10;99.90;;;;;;5066375;28;20283;-72
2022/10/14 10:46:04;;;;;;;12.63;7.37;;;13.20;99.90;;;;;;5067577;28;20309;-72
2022/10/14 10:48:53;;;;;;;12.67;7.43;;;13.30;99.90;;;;;;5068231;28;20320;-72
2022/10/14 10:51:30;;;;;;;10.63;6.57;;;13.30;99.90;;;;;;5051609;28;20340;-72
2022/10/14 10:54:25;;;;;;;9.50;5.70;;;13.30;99.90;;;;;;5061704;28;20266;-70
2022/10/14 10:56:58;;;;;;;10.52;6.13;;;13.30;99.90;;;;;;5048712;28;20278;-70
2022/10/14 10:59:36;;;;;;;8.53;5.60;;;13.40;99.90;;;;;;5066855;28;20098;-72
2022/10/14 11:02:37;;;;;;;9.43;5.17;;;13.40;99.90;;;;;;5066587;28;20274;-72
2022/10/14 11:05:29;;;;;;;7.13;5.13;;;13.50;99.90;;;;;;5077605;28;20774;-72
2022/10/14 11:14:21;;;;;;;8.00;4.80;;;13.50;99.90;;;;;;5051516;28;20271;-72
2022/10/14 11:17:05;;;;;;;7.57;5.07;;;13.40;99.90;;;;;;5044443;28;20348;-73
2022/10/14 11:19:51;;;;;;;6.83;4.57;;;13.40;99.90;;;;;;5061073;28;20294;-71
2022/10/14 11:22:27;;;;;;;7.73;4.83;;;13.40;99.90;;;;;;5052567;28;20964;-73
2022/10/14 11:25:17;;;;;;;7.00;4.50;;;13.30;99.90;;;;;;5052024;28;20359;-71
2022/10/14 11:27:51;;;;;;;7.37;4.57;;;13.20;99.90;;;;;;5059010;28;20325;-72
2022/10/14 11:30:28;;;;;;;6.83;3.90;;;13.20;99.90;;;;;;5049026;28;20500;-72
2022/10/14 11:33:17;;;;;;;6.20;4.10;;;13.20;99.90;;;;;;5068852;28;20289;-73
2022/10/14 11:36:26;;;;;;;6.87;4.40;;;13.20;99.90;;;;;;5076938;28;20781;-71
2022/10/14 11:38:51;;;;;;;5.97;3.88;;;13.20;99.90;;;;;;5051824;28;20638;-72
2022/10/14 11:41:27;;;;;;;7.20;4.67;;;13.20;99.90;;;;;;5061831;28;20040;-71
2022/10/14 11:44:22;;;;;;;7.33;4.70;;;13.30;99.90;;;;;;5069502;28;20052;-73
2022/10/14 11:46:53;;;;;;;6.90;4.17;;;13.20;99.90;;;;;;5040022;28;20820;-73
2022/10/14 11:52:10;;;;;;;7.10;4.07;;;13.30;99.90;;;;;;5355540;22;20335;-71
2022/10/14 11:55:16;;;;;;;7.83;4.87;;;13.30;99.90;;;;;;5023078;28;20297;-71
2022/10/14 11:57:52;;;;;;;8.07;3.90;;;13.30;99.90;;;;;;5008668;28;20280;-72
2022/10/14 12:00:20;;;;;;;5.47;3.53;;;13.20;99.90;;;;;;5012047;28;20530;-72
2022/10/14 12:03:18;;;;;;;7.53;4.47;;;13.30;99.90;;;;;;5009422;28;20280;-72
2022/10/14 12:06:12;;;;;;;7.57;4.60;;;13.30;99.90;;;;;;5005814;28;20315;-72
2022/10/14 12:08:52;;;;;;;6.80;4.70;;;13.30;99.90;;;;;;5005736;28;20367;-72
2022/10/14 12:11:26;;;;;;;6.03;3.77;;;13.30;99.90;;;;;;5002523;28;20286;-71
2022/10/14 12:14:14;;;;;;;6.78;4.47;;;13.20;99.90;;;;;;5023660;28;20295;-71
2022/10/14 12:16:43;;;;;;;7.20;4.23;;;13.20;99.90;;;;;;5010093;28;20133;-72
2022/10/14 12:19:11;;;;;;;8.50;4.60;;;13.20;99.90;;;;;;4988610;28;20647;-72
2022/10/14 12:21:52;;;;;;;8.13;4.20;;;13.20;99.90;;;;;;5003673;28;20280;-71
2022/10/14 12:24:22;;;;;;;7.27;4.63;;;13.20;99.90;;;;;;5013524;28;20382;-71
2022/10/14 12:26:55;;;;;;;7.50;4.53;;;13.20;99.90;;;;;;4987261;28;20343;-71
2022/10/14 12:29:24;;;;;;;9.27;4.83;;;13.20;99.90;;;;;;4990696;28;20706;-71
2022/10/14 12:32:06;;;;;;;8.50;4.60;;;13.30;99.90;;;;;;5009019;28;20371;-72
2022/10/14 12:34:39;;;;;;;7.57;4.70;;;13.30;99.90;;;;;;4982925;28;20284;-72
2022/10/14 12:37:33;;;;;;;9.57;4.93;;;13.40;99.90;;;;;;5004459;28;20366;-72
2022/10/14 12:40:02;;;;;;;7.90;4.47;;;13.50;99.90;;;;;;4993421;28;20300;-72
2022/10/14 12:42:43;;;;;;;8.67;5.03;;;13.50;99.90;;;;;;4998832;28;20367;-72
2022/10/14 12:45:21;;;;;;;7.27;4.77;;;13.60;99.90;;;;;;5004400;28;20304;-72
2022/10/14 12:48:21;;;;;;;8.10;4.70;;;13.60;99.90;;;;;;5016026;28;20602;-72
2022/10/14 12:50:50;;;;;;;9.13;4.00;;;13.60;99.90;;;;;;4993922;28;20395;-72
2022/10/14 12:53:27;;;;;;;6.30;3.80;;;13.70;99.90;;;;;;5007526;28;20331;-72
2022/10/14 12:56:03;;;;;;;7.57;3.97;;;13.70;99.90;;;;;;5023737;28;20290;-72
2022/10/14 12:58:50;;;;;;;6.03;3.63;;;13.70;99.90;;;;;;5007404;28;20288;-72
2022/10/14 13:01:18;;;;;;;6.17;3.43;;;13.70;99.90;;;;;;5022705;28;20296;-72
2022/10/14 13:03:53;;;;;;;5.17;3.50;;;13.60;99.90;;;;;;5024399;28;20310;-72
2022/10/14 13:06:34;;;;;;;6.00;3.60;;;13.60;99.90;;;;;;5023678;28;20288;-72
2022/10/14 13:09:12;;;;;;;4.77;3.17;;;13.70;99.90;;;;;;5025486;28;20045;-72
2022/10/14 13:11:40;;;;;;;6.27;3.80;;;13.70;99.90;;;;;;5022742;28;20280;-72